createdAt,value
2022-08-07T00:01:44.731Z,4.15
2022-08-07T00:04:15.288Z,3.38
2022-08-07T00:06:51.614Z,4.90
2022-08-07T00:09:22.352Z,4.43
2022-08-07T00:11:55.442Z,4.15
2022-08-07T00:14:25.506Z,4.00
2022-08-07T00:16:57.556Z,3.50
2022-08-07T00:19:26.066Z,4.13
2022-08-07T00:22:03.244Z,4.32
2022-08-07T00:24:31.804Z,3.38
2022-08-07T00:27:07.202Z,3.97
2022-08-07T00:29:37.163Z,4.57
2022-08-07T00:32:05.965Z,3.90
2022-08-07T00:34:33.724Z,3.28
2022-08-07T00:37:02.736Z,4.55
2022-08-07T00:39:32.698Z,4.45
2022-08-07T00:42:02.546Z,3.22
2022-08-07T00:44:41.294Z,3.53
2022-08-07T00:47:16.002Z,3.10
2022-08-07T00:50:20.697Z,3.00
2022-08-07T00:52:42.928Z,4.15
2022-08-07T00:55:14.278Z,3.63
2022-08-07T00:57:55.934Z,3.30
2022-08-07T01:00:23.513Z,3.80
2022-08-07T01:02:50.815Z,5.35
2022-08-07T01:05:19.070Z,4.00
2022-08-07T01:07:46.886Z,4.82
2022-08-07T01:10:17.077Z,4.13
2022-08-07T01:12:53.964Z,4.75
2022-08-07T01:15:23.222Z,3.35
2022-08-07T01:18:10.135Z,4.82
2022-08-07T01:20:59.237Z,4.00
2022-08-07T01:23:38.491Z,4.07
2022-08-07T01:26:08.307Z,3.70
2022-08-07T01:28:40.351Z,4.00
2022-08-07T01:31:15.547Z,4.78
2022-08-07T01:33:55.605Z,4.07
2022-08-07T01:36:33.222Z,4.35
2022-08-07T01:39:01.212Z,4.32
2022-08-07T01:41:32.591Z,3.78
2022-08-07T01:43:59.309Z,4.95
2022-08-07T01:46:28.387Z,5.15
2022-08-07T01:48:59.791Z,5.82
2022-08-07T01:52:03.596Z,4.95
2022-08-07T01:54:33.074Z,3.92
2022-08-07T01:57:24.965Z,4.78
2022-08-07T02:00:01.368Z,4.93
2022-08-07T02:03:18.136Z,5.75
2022-08-07T02:05:48.320Z,5.30
2022-08-07T02:08:23.957Z,5.25
2022-08-07T02:10:54.955Z,5.20
2022-08-07T02:13:56.435Z,4.60
2022-08-07T02:16:12.103Z,5.82
2022-08-07T02:18:47.084Z,5.75
2022-08-07T02:21:16.856Z,4.95
2022-08-07T02:23:44.842Z,4.85
2022-08-07T02:26:32.880Z,4.60
2022-08-07T02:29:02.065Z,5.85
2022-08-07T02:31:29.571Z,4.93
2022-08-07T02:34:02.841Z,4.68
2022-08-07T02:36:32.727Z,6.05
2022-08-07T02:39:16.205Z,5.28
2022-08-07T02:41:54.238Z,4.07
2022-08-07T02:44:27.754Z,5.97
2022-08-07T02:47:03.321Z,4.57
2022-08-07T02:49:58.406Z,5.75
2022-08-07T02:52:31.165Z,6.28
2022-08-07T02:55:03.852Z,4.55
2022-08-07T02:57:34.135Z,5.43
2022-08-07T03:00:04.935Z,4.45
2022-08-07T03:02:41.902Z,4.53
2022-08-07T03:05:23.130Z,4.00
2022-08-07T03:08:04.895Z,5.75
2022-08-07T03:10:35.850Z,4.40
2022-08-07T03:13:08.580Z,5.00
2022-08-07T03:15:47.865Z,5.13
2022-08-07T03:18:25.824Z,5.53
2022-08-07T03:21:04.469Z,5.78
2022-08-07T03:23:33.854Z,5.72
2022-08-07T03:26:23.659Z,4.53
2022-08-07T03:28:51.508Z,6.32
2022-08-07T03:31:24.464Z,4.85
2022-08-07T03:33:59.300Z,6.10
2022-08-07T03:36:28.026Z,5.22
2022-08-07T03:38:59.228Z,5.50
2022-08-07T03:41:41.689Z,5.13
2022-08-07T03:44:09.868Z,4.50
2022-08-07T03:46:38.010Z,5.32
2022-08-07T03:49:24.931Z,5.82
2022-08-07T03:52:01.298Z,6.57
2022-08-07T03:54:35.322Z,6.63
2022-08-07T03:58:33.614Z,6.20
2022-08-07T04:00:04.602Z,4.43
2022-08-07T04:02:32.618Z,5.97
2022-08-07T04:04:59.505Z,6.32
2022-08-07T04:07:26.165Z,6.32
2022-08-07T04:10:03.666Z,6.57
2022-08-07T04:12:32.890Z,5.53
2022-08-07T04:15:02.242Z,5.55
2022-08-07T04:18:56.815Z,6.90
2022-08-07T04:20:19.510Z,7.68
2022-08-07T04:22:53.698Z,6.75
2022-08-07T04:25:29.317Z,7.50
2022-08-07T04:27:59.334Z,5.95
2022-08-07T04:30:43.799Z,7.35
2022-08-07T04:33:17.604Z,6.93
2022-08-07T04:35:50.950Z,7.28
2022-08-07T04:38:20.293Z,7.18
2022-08-07T04:40:51.705Z,7.22
2022-08-07T04:44:11.711Z,6.32
2022-08-07T04:46:29.340Z,6.10
2022-08-07T04:49:24.545Z,7.22
2022-08-07T04:52:12.553Z,6.43
2022-08-07T04:54:58.145Z,6.18
2022-08-07T04:58:12.162Z,6.90
2022-08-07T05:00:56.567Z,7.35
2022-08-07T05:03:59.957Z,6.82
2022-08-07T05:06:43.247Z,7.60
2022-08-07T05:09:45.844Z,7.93
2022-08-07T05:15:03.483Z,7.53
2022-08-07T05:17:52.095Z,8.20
2022-08-07T05:20:26.719Z,6.35
2022-08-07T05:22:59.525Z,7.30
2022-08-07T05:28:19.968Z,8.32
2022-08-07T05:30:49.628Z,7.18
2022-08-07T05:33:17.927Z,8.23
2022-08-07T05:35:45.894Z,7.90
2022-08-07T05:38:58.298Z,8.90
2022-08-07T05:41:12.420Z,8.20
2022-08-07T05:44:08.613Z,9.35
2022-08-07T05:46:31.290Z,9.02
2022-08-07T05:48:59.661Z,8.77
2022-08-07T05:51:33.166Z,9.55
2022-08-07T05:54:09.295Z,8.68
2022-08-07T05:56:51.279Z,8.73
2022-08-07T05:59:21.026Z,9.20
2022-08-07T06:01:49.341Z,9.38
2022-08-07T06:04:18.005Z,7.60
2022-08-07T06:06:46.259Z,10.07
2022-08-07T06:09:16.755Z,9.38
2022-08-07T06:11:44.242Z,8.85
2022-08-07T06:14:21.021Z,10.57
2022-08-07T06:16:50.467Z,8.85
2022-08-07T06:19:51.905Z,10.45
2022-08-07T06:22:15.027Z,10.23
2022-08-07T06:24:58.113Z,9.27
2022-08-07T06:27:44.157Z,10.77
2022-08-07T06:30:31.970Z,8.13
2022-08-07T06:33:01.667Z,8.98
2022-08-07T06:35:45.725Z,8.35
2022-08-07T06:38:20.430Z,11.02
2022-08-07T06:40:53.108Z,7.60
2022-08-07T06:45:50.564Z,6.38
2022-08-07T06:48:24.724Z,9.07
2022-08-07T06:50:54.284Z,8.20
2022-08-07T06:55:28.773Z,8.55
2022-08-07T06:56:15.111Z,9.00
2022-08-07T07:00:15.073Z,7.53
2022-08-07T07:01:43.721Z,8.73
2022-08-07T07:04:28.098Z,8.10
2022-08-07T07:07:02.256Z,8.48
2022-08-07T07:09:31.269Z,6.68
2022-08-07T07:12:33.455Z,7.15
2022-08-07T07:15:24.123Z,7.10
2022-08-07T07:20:32.020Z,7.40
2022-08-07T07:24:09.587Z,8.13
2022-08-07T07:26:32.212Z,7.45
2022-08-07T07:29:28.583Z,5.15
2022-08-07T07:31:44.694Z,13.20
2022-08-07T07:34:19.598Z,9.55
2022-08-07T07:36:54.230Z,7.63
2022-08-07T07:39:25.708Z,8.65
2022-08-07T07:42:13.026Z,7.20
2022-08-07T07:44:45.534Z,7.80
2022-08-07T07:47:23.689Z,6.88
2022-08-07T07:50:33.065Z,8.52
2022-08-07T07:52:41.882Z,8.93
2022-08-07T07:55:11.000Z,7.65
2022-08-07T07:57:51.741Z,6.85
2022-08-07T08:00:29.758Z,7.30
2022-08-07T08:03:08.292Z,6.43
2022-08-07T08:05:54.527Z,5.60
2022-08-07T08:08:35.213Z,6.75
2022-08-07T08:11:08.994Z,6.60
2022-08-07T08:13:54.704Z,5.72
2022-08-07T08:16:32.401Z,5.78
2022-08-07T08:19:09.648Z,6.20
2022-08-07T08:22:10.837Z,5.90
2022-08-07T08:25:18.848Z,6.47
2022-08-07T08:27:56.415Z,5.32
2022-08-07T08:30:25.417Z,3.65
2022-08-07T08:32:58.969Z,4.78
2022-08-07T08:35:28.942Z,5.28
2022-08-07T08:38:07.460Z,5.10
2022-08-07T08:40:47.046Z,3.72
2022-08-07T08:43:42.688Z,2.85
2022-08-07T08:46:48.976Z,3.85
2022-08-07T08:50:02.573Z,3.45
2022-08-07T08:52:40.762Z,3.78
2022-08-07T08:55:54.955Z,3.60
2022-08-07T08:58:30.069Z,4.18
2022-08-07T09:01:14.990Z,5.20
2022-08-07T09:04:07.693Z,3.58
2022-08-07T09:07:03.436Z,3.63
2022-08-07T09:09:56.856Z,3.35
2022-08-07T09:12:31.691Z,2.85
2022-08-07T09:16:23.002Z,2.75
2022-08-07T09:18:36.737Z,2.70
2022-08-07T09:22:10.044Z,2.92
2022-08-07T09:24:59.789Z,2.42
2022-08-07T09:27:54.627Z,2.70
2022-08-07T09:30:25.478Z,2.10
2022-08-07T09:33:52.627Z,2.30
2022-08-07T09:36:35.291Z,1.85
2022-08-07T09:39:54.420Z,2.30
2022-08-07T09:42:41.279Z,2.95
2022-08-07T09:47:26.046Z,2.75
2022-08-07T09:48:50.248Z,2.40
2022-08-07T09:52:15.955Z,2.28
2022-08-07T09:54:46.160Z,1.60
2022-08-07T09:57:31.076Z,1.55
2022-08-07T10:00:14.407Z,8.70
2022-08-07T10:03:07.875Z,4.07
2022-08-07T10:06:00.257Z,3.40
2022-08-07T10:08:46.571Z,2.55
2022-08-07T10:12:01.555Z,1.92
2022-08-07T10:18:00.314Z,2.53
2022-08-07T10:20:44.488Z,2.88
2022-08-07T10:24:04.932Z,2.42
2022-08-07T10:27:17.970Z,2.65
2022-08-07T10:30:12.064Z,2.35
2022-08-07T10:33:04.032Z,2.90
2022-08-07T10:36:11.339Z,2.88
2022-08-07T10:39:00.309Z,2.72
2022-08-07T10:41:46.461Z,3.70
2022-08-07T10:44:33.844Z,3.38
2022-08-07T10:47:11.850Z,3.00
2022-08-07T10:49:51.073Z,2.35
2022-08-07T10:52:36.655Z,2.25
2022-08-07T10:55:32.418Z,2.42
2022-08-07T10:58:14.058Z,2.00
2022-08-07T11:01:11.612Z,1.77
2022-08-07T11:04:17.024Z,2.55
2022-08-07T11:07:14.994Z,2.67
2022-08-07T11:10:08.019Z,2.80
2022-08-07T11:12:44.321Z,3.42
2022-08-07T11:15:26.256Z,2.88
2022-08-07T11:18:04.640Z,4.18
2022-08-07T11:20:48.384Z,2.50
2022-08-07T11:23:20.707Z,2.20
2022-08-07T11:26:27.945Z,1.77
2022-08-07T11:29:01.457Z,2.33
2022-08-07T11:31:41.517Z,3.00
2022-08-07T11:34:17.526Z,1.65
2022-08-07T11:37:24.266Z,1.92
2022-08-07T11:40:12.642Z,3.38
2022-08-07T11:42:55.450Z,1.70
2022-08-07T11:46:05.373Z,2.38
2022-08-07T11:49:50.267Z,2.58
2022-08-07T11:51:58.091Z,3.00
2022-08-07T11:54:55.048Z,2.95
2022-08-07T11:57:59.915Z,1.83
2022-08-07T12:01:02.461Z,1.67
2022-08-07T12:03:45.654Z,2.03
2022-08-07T12:06:57.259Z,2.22
2022-08-07T12:09:55.651Z,2.20
2022-08-07T12:12:28.248Z,2.90
2022-08-07T12:15:35.667Z,2.17
2022-08-07T12:18:45.206Z,2.33
2022-08-07T12:21:16.248Z,1.85
2022-08-07T12:24:37.029Z,1.88
2022-08-07T12:27:28.005Z,3.10
2022-08-07T12:30:11.096Z,3.33
2022-08-07T12:33:00.223Z,1.77
2022-08-07T12:35:29.382Z,1.42
2022-08-07T12:38:11.218Z,2.10
2022-08-07T12:40:50.211Z,2.22
2022-08-07T12:44:02.729Z,2.20
2022-08-07T12:46:32.472Z,2.70
2022-08-07T12:49:25.327Z,2.17
2022-08-07T12:52:18.013Z,1.77
2022-08-07T12:55:09.472Z,1.98
2022-08-07T12:58:01.394Z,2.08
2022-08-07T13:00:41.775Z,2.35
2022-08-07T13:04:02.167Z,1.92
2022-08-07T13:07:01.069Z,2.33
2022-08-07T13:10:21.692Z,3.22
2022-08-07T13:13:00.748Z,2.17
2022-08-07T13:15:42.949Z,2.20
2022-08-07T13:21:02.768Z,2.72
2022-08-07T13:24:02.146Z,2.75
2022-08-07T13:26:46.130Z,2.00
2022-08-07T13:29:23.617Z,2.25
2022-08-07T13:32:06.291Z,2.17
2022-08-07T13:34:59.758Z,2.13
2022-08-07T13:37:58.681Z,2.83
2022-08-07T13:40:41.868Z,2.08
2022-08-07T13:43:13.268Z,1.75
2022-08-07T13:46:11.495Z,1.75
2022-08-07T13:48:39.919Z,2.38
2022-08-07T13:51:27.371Z,2.53
2022-08-07T13:54:02.139Z,2.13
2022-08-07T13:56:35.698Z,1.60
2022-08-07T13:59:20.672Z,1.52
2022-08-07T14:02:14.997Z,1.90
2022-08-07T14:04:50.373Z,1.42
2022-08-07T14:07:24.347Z,2.55
2022-08-07T14:10:02.135Z,2.65
2022-08-07T14:12:55.877Z,1.90
2022-08-07T14:15:43.734Z,2.33
2022-08-07T14:18:29.803Z,1.63
2022-08-07T14:22:02.487Z,1.90
2022-08-07T14:24:33.640Z,1.38
2022-08-07T14:28:09.881Z,2.15
2022-08-07T14:30:07.365Z,1.73
2022-08-07T14:32:47.261Z,2.83
2022-08-07T14:35:43.322Z,1.88
2022-08-07T14:38:24.708Z,2.08
2022-08-07T14:41:00.725Z,2.08
2022-08-07T14:43:57.320Z,2.08
2022-08-07T14:46:30.496Z,2.25
2022-08-07T14:49:17.427Z,1.40
2022-08-07T14:52:03.843Z,1.80
2022-08-07T14:54:42.143Z,1.77
2022-08-07T14:57:19.536Z,2.05
2022-08-07T15:00:04.499Z,2.55
2022-08-07T15:02:35.086Z,2.33
2022-08-07T15:05:04.658Z,1.60
2022-08-07T15:07:51.999Z,1.63
2022-08-07T15:13:23.217Z,2.13
2022-08-07T15:15:57.500Z,1.63
2022-08-07T15:18:41.929Z,1.83
2022-08-07T15:21:58.978Z,1.65
2022-08-07T15:25:15.977Z,1.63
2022-08-07T15:27:12.056Z,1.25
2022-08-07T15:30:06.772Z,1.63
2022-08-07T15:32:38.853Z,1.55
2022-08-07T15:35:12.317Z,1.65
2022-08-07T15:38:17.456Z,1.33
2022-08-07T15:46:37.281Z,1.98
2022-08-07T15:49:15.332Z,1.52
2022-08-07T15:54:30.830Z,1.10
2022-08-07T15:57:04.920Z,1.33
2022-08-07T15:59:39.909Z,1.67
2022-08-07T16:02:22.605Z,1.80
2022-08-07T16:04:57.611Z,2.25
2022-08-07T16:08:32.990Z,1.98
2022-08-07T16:10:27.714Z,1.88
2022-08-07T16:14:00.205Z,2.13
2022-08-07T16:16:47.884Z,1.95
2022-08-07T16:20:32.889Z,1.92
2022-08-07T16:23:52.987Z,1.90
2022-08-07T16:26:34.667Z,1.33
2022-08-07T16:30:06.461Z,1.90
2022-08-07T16:32:33.072Z,2.00
2022-08-07T16:34:59.165Z,2.47
2022-08-07T16:38:06.318Z,2.37
2022-08-07T16:41:05.015Z,1.80
2022-08-07T16:44:40.181Z,3.50
2022-08-07T16:47:25.174Z,1.92
2022-08-07T16:50:28.614Z,2.35
2022-08-07T16:54:06.233Z,1.98
2022-08-07T16:56:48.906Z,1.83
2022-08-07T16:59:47.464Z,2.20
2022-08-07T17:02:51.717Z,1.90
2022-08-07T17:06:28.167Z,2.20
2022-08-07T17:12:04.038Z,1.42
2022-08-07T17:14:41.756Z,2.08
2022-08-07T17:17:44.298Z,2.03
2022-08-07T17:20:29.866Z,1.63
2022-08-07T17:22:57.471Z,2.53
2022-08-07T17:25:51.495Z,1.85
2022-08-07T17:28:49.920Z,2.40
2022-08-07T17:32:02.849Z,2.05
2022-08-07T17:35:32.934Z,1.77
2022-08-07T17:38:05.870Z,1.60
2022-08-07T17:40:30.171Z,2.33
2022-08-07T17:43:15.054Z,2.33
2022-08-07T17:45:58.780Z,1.83
2022-08-07T17:48:39.256Z,2.30
2022-08-07T17:51:59.974Z,2.78
2022-08-07T17:54:39.547Z,4.05
2022-08-07T17:57:18.814Z,2.28
2022-08-07T17:59:51.540Z,2.30
2022-08-07T18:02:32.586Z,2.00
2022-08-07T18:05:21.530Z,2.53
2022-08-07T18:08:16.467Z,1.42
2022-08-07T18:12:07.256Z,1.88
2022-08-07T18:14:10.096Z,1.70
2022-08-07T18:16:57.501Z,1.58
2022-08-07T18:21:05.868Z,2.25
2022-08-07T18:22:58.362Z,1.80
2022-08-07T18:25:40.224Z,1.88
2022-08-07T18:28:36.063Z,2.83
2022-08-07T18:31:18.452Z,2.08
2022-08-07T18:34:39.219Z,2.63
2022-08-07T18:38:55.821Z,2.38
2022-08-07T18:40:53.338Z,3.50
2022-08-07T18:43:49.117Z,2.28
2022-08-07T18:46:51.051Z,2.25
2022-08-07T18:50:32.613Z,3.30
2022-08-07T18:52:55.079Z,2.63
2022-08-07T18:55:42.902Z,3.58
2022-08-07T18:58:17.575Z,3.65
2022-08-07T19:00:55.126Z,3.05
2022-08-07T19:03:42.632Z,3.33
2022-08-07T19:06:16.474Z,3.28
2022-08-07T19:08:58.694Z,3.58
2022-08-07T19:11:40.251Z,3.05
2022-08-07T19:14:42.040Z,4.13
2022-08-07T19:17:58.974Z,3.13
2022-08-07T19:20:30.217Z,3.75
2022-08-07T19:23:57.420Z,3.85
2022-08-07T19:26:24.686Z,3.43
2022-08-07T19:30:57.442Z,4.78
2022-08-07T19:32:14.856Z,4.00
2022-08-07T19:34:55.204Z,4.90
2022-08-07T19:37:23.672Z,3.47
2022-08-07T19:40:01.853Z,3.70
2022-08-07T19:42:31.617Z,4.07
2022-08-07T19:45:12.297Z,3.58
2022-08-07T19:50:45.090Z,3.40
2022-08-07T19:52:58.874Z,3.83
2022-08-07T19:55:46.820Z,4.28
2022-08-07T19:58:16.828Z,4.38
2022-08-07T20:00:55.391Z,3.75
2022-08-07T20:03:35.010Z,3.13
2022-08-07T20:06:04.916Z,4.28
2022-08-07T20:08:38.780Z,5.10
2022-08-07T20:11:10.807Z,4.85
2022-08-07T20:13:54.451Z,4.53
2022-08-07T20:16:34.671Z,3.90
2022-08-07T20:19:10.220Z,4.45
2022-08-07T20:21:42.134Z,4.50
2022-08-07T20:24:35.762Z,4.55
2022-08-07T20:27:09.079Z,4.15
2022-08-07T20:29:56.850Z,3.50
2022-08-07T20:32:40.223Z,4.35
2022-08-07T20:35:15.817Z,3.27
2022-08-07T20:37:57.849Z,4.82
2022-08-07T20:40:32.666Z,3.85
2022-08-07T20:43:01.427Z,4.88
2022-08-07T20:46:25.794Z,5.07
2022-08-07T20:48:28.362Z,3.58
2022-08-07T20:51:00.150Z,3.53
2022-08-07T20:54:04.785Z,4.68
2022-08-07T20:56:16.495Z,4.97
2022-08-07T20:58:50.408Z,5.60
2022-08-07T21:01:21.698Z,4.55
2022-08-07T21:04:19.510Z,4.65
2022-08-07T21:06:53.416Z,4.68
2022-08-07T21:09:24.209Z,4.25
2022-08-07T21:11:56.994Z,4.88
2022-08-07T21:18:02.637Z,6.05
2022-08-07T21:20:04.630Z,6.13
2022-08-07T21:22:51.241Z,4.78
2022-08-07T21:25:29.462Z,6.03
2022-08-07T21:28:48.625Z,5.07
2022-08-07T21:32:42.786Z,4.97
2022-08-07T21:34:46.134Z,6.03
2022-08-07T21:37:57.214Z,5.53
2022-08-07T21:40:41.233Z,5.75
2022-08-07T21:43:23.116Z,6.10
2022-08-07T21:46:09.351Z,5.13
2022-08-07T21:48:59.201Z,7.90
2022-08-07T21:51:32.308Z,5.50
2022-08-07T21:54:30.892Z,4.43
2022-08-07T21:57:44.717Z,6.15
2022-08-07T22:00:22.916Z,5.45
2022-08-07T22:03:16.837Z,4.60
2022-08-07T22:06:30.259Z,5.22
2022-08-07T22:09:07.042Z,6.25
2022-08-07T22:12:05.747Z,6.15
2022-08-07T22:14:36.060Z,4.57
2022-08-07T22:17:04.951Z,6.50
2022-08-07T22:20:02.563Z,5.30
2022-08-07T22:22:52.510Z,5.45
2022-08-07T22:25:39.487Z,5.22
2022-08-07T22:28:37.242Z,6.32
2022-08-07T22:31:56.118Z,5.53
2022-08-07T22:34:28.736Z,5.40
2022-08-07T22:38:01.663Z,5.07
2022-08-07T22:40:32.297Z,5.15
2022-08-07T22:43:17.711Z,5.15
2022-08-07T22:47:01.936Z,6.18
2022-08-07T22:49:15.948Z,5.22
2022-08-07T22:54:31.287Z,5.82
2022-08-07T22:57:37.374Z,5.18
2022-08-07T23:00:34.587Z,4.88
2022-08-07T23:03:21.267Z,6.10
2022-08-07T23:06:08.681Z,6.05
2022-08-07T23:10:05.256Z,6.32
2022-08-07T23:12:21.019Z,6.47
2022-08-07T23:15:07.846Z,5.20
2022-08-07T23:18:14.059Z,5.72
2022-08-07T23:20:56.596Z,5.78
2022-08-07T23:24:04.300Z,4.63
2022-08-07T23:27:01.205Z,6.28
2022-08-07T23:29:43.151Z,5.20
2022-08-07T23:34:21.573Z,6.40
2022-08-07T23:35:37.584Z,5.13
2022-08-07T23:38:19.151Z,4.68
2022-08-07T23:41:14.926Z,6.68
2022-08-07T23:44:04.574Z,5.72
2022-08-07T23:47:03.041Z,6.78
2022-08-07T23:49:42.174Z,6.38
2022-08-07T23:53:11.670Z,6.32
2022-08-07T23:55:51.778Z,6.72
2022-08-07T23:58:25.067Z,5.90
